PolandFixed distance
Limanowski Ekstremalny Maraton Pieszy KIERAT
20–22 May2011
Distance
100km
Finishers
311279 men32 women
Winning time
12:42:00h
Median pace
3.90km/h
Pace distribution
311 finishers · 3.17–7.87 km/h · mean 4.15
Every finisher ran the same 100 km course, so these paces are directly comparable.
Histogram of finisher pace. 311 finishers ranged from 3.17 to 7.87 kilometres per hour, with a mean of 4.15 and a median of 3.90. The busiest band is 3.5 to 4.0 kilometres per hour, with 104 finishers.
Results
Ranks 201–250 of 311
| Rank | Runner | Time | Pace | Cat. | Placing |
|---|---|---|---|---|---|
| 201 | *Świdnica | 26:50:00h | 3.73 | M23 | 181st M · 79th M23 |
| 202 | *Bielsko-Biała | 26:52:00h | 3.72 | M45 | 184th M · 17th M45 |
| 203 | *Czechowice-Dziedzice | 26:53:00h | 3.72 | M23 | 185th M · 80th M23 |
| 204 | *Ligota | 26:53:00h | 3.72 | MU23 | 185th M · 21st MU23 |
| 205 | 68 lat | 26:54:00h | 3.72 | M65 | 187th M · 1st M65 |
| 206 | Degustatorzy | 26:54:00h | 3.72 | M23 | 187th M · 81st M23 |
| 207 | *Kraków | 26:55:00h | 3.71 | MU23 | 189th M · 22nd MU23 |
| 208 | *Katowice | 26:58:00h | 3.71 | M35 | 190th M · 37th M35 |
| 209 | *Ryczów | 26:58:00h | 3.71 | M23 | 190th M · 82nd M23 |
| 210 | *Kraków | 26:58:00h | 3.71 | M23 | 190th M · 82nd M23 |
| 211 | *Sosnowiec | 26:58:00h | 3.71 | M23 | 190th M · 82nd M23 |
| 212 | *Myślenice | 27:01:00h | 3.70 | M50 | 194th M · 11th M50 |
| 213 | Gato Negro | 27:02:00h | 3.70 | M35 | 195th M · 38th M35 |
| 214 | pancerne wątroby | 27:02:00h | 3.70 | M40 | 195th M · 21st M40 |
| 215 | Pinky i Mózg | 27:03:00h | 3.70 | M23 | 197th M · 85th M23 |
| 216 | *Nowy Sącz | 27:03:00h | 3.70 | M23 | 197th M · 85th M23 |
| 217 | *Stara Wieś | 27:03:00h | 3.70 | M23 | 197th M · 85th M23 |
| 218 | Pinky i Mózg | 27:03:00h | 3.70 | MU23 | 197th M · 23rd MU23 |
| 219 | *Nowy Sącz | 27:03:00h | 3.70 | M23 | 197th M · 85th M23 |
| 220 | *Rybnik | 27:06:00h | 3.69 | M23 | 202nd M · 89th M23 |
| 221 | Babilon | 27:09:00h | 3.68 | M35 | 203rd M · 39th M35 |
| 222 | *Radomsko | 27:14:00h | 3.67 | M35 | 204th M · 40th M35 |
| 223 | *Radomsko | 27:14:00h | 3.67 | M35 | 204th M · 40th M35 |
| 224 | *Warszawa | 27:23:00h | 3.65 | M50 | 206th M · 12th M50 |
| 225 | ICM Adventure | 27:23:00h | 3.65 | W45 | 19th F · 1st W45 |
| 226 | WK PTTK Husaria Czarne | 27:24:00h | 3.65 | W50 | 20th F · 1st W50 |
| 227 | *Biłgoraj | 27:30:00h | 3.64 | M35 | 207th M · 42nd M35 |
| 228 | *Szczytno | 27:39:00h | 3.62 | W50 | 21st F · 2nd W50 |
| 229 | KB Dreptak Mińsk Mazow... | 27:46:00h | 3.60 | M45 | 208th M · 18th M45 |
| 230 | bajersport.pl | 27:53:00h | 3.59 | M23 | 209th M · 90th M23 |
| 231 | PJKM | 27:53:00h | 3.59 | M35 | 209th M · 43rd M35 |
| 232 | JC Team | 27:53:00h | 3.59 | M23 | 209th M · 90th M23 |
| 233 | KUMPLE | 27:54:00h | 3.58 | M23 | 212th M · 92nd M23 |
| 234 | KUMPLE | 27:54:00h | 3.58 | M23 | 212th M · 92nd M23 |
| 235 | *Warszawa | 27:58:00h | 3.58 | W23 | 22nd F · 15th W23 |
| 236 | *Kraków | 28:09:00h | 3.55 | W23 | 23rd F · 16th W23 |
| 237 | Gorilla sucks | 28:09:00h | 3.55 | MU23 | 214th M · 24th MU23 |
| 238 | Borek - Chełm | 28:12:00h | 3.55 | M45 | 215th M · 19th M45 |
| 239 | *Kraków | 28:20:00h | 3.53 | MU23 | 216th M · 25th MU23 |
| 240 | Jachty Saturn Team | 28:24:00h | 3.52 | M23 | 217th M · 94th M23 |
| 241 | Planeta Gór | 28:30:00h | 3.51 | M23 | 218th M · 95th M23 |
| 242 | *Dobra | 28:36:00h | 3.50 | M23 | 219th M · 96th M23 |
| 243 | *Warszawa | 28:39:00h | 3.49 | M55 | 220th M · 3rd M55 |
| 244 | Azymut.pl | 28:39:00h | 3.49 | M40 | 220th M · 22nd M40 |
| 245 | Kongo Power | 28:45:00h | 3.48 | M23 | 222nd M · 97th M23 |
| 246 | okolicekrakowa.republi... | 28:45:00h | 3.48 | M23 | 222nd M · 97th M23 |
| 247 | Kongo Power | 28:45:00h | 3.48 | M23 | 222nd M · 97th M23 |
| 248 | Kongo Power | 28:45:00h | 3.48 | MU23 | 222nd M · 26th MU23 |
| 249 | Kongo Power | 28:45:00h | 3.48 | M23 | 222nd M · 97th M23 |
| 250 | Maraton Leszno | 28:49:00h | 3.47 | M35 | 227th M · 44th M35 |
- 201*Świdnica181st M · 79th M23Time26:50:00hPace3.73Cat.M23
- 202*Bielsko-Biała184th M · 17th M45Time26:52:00hPace3.72Cat.M45
- 203*Czechowice-Dziedzice185th M · 80th M23Time26:53:00hPace3.72Cat.M23
- 204*Ligota185th M · 21st MU23Time26:53:00hPace3.72Cat.MU23
- 20568 lat187th M · 1st M65Time26:54:00hPace3.72Cat.M65
- 206Degustatorzy187th M · 81st M23Time26:54:00hPace3.72Cat.M23
- 207*Kraków189th M · 22nd MU23Time26:55:00hPace3.71Cat.MU23
- 208*Katowice190th M · 37th M35Time26:58:00hPace3.71Cat.M35
- 209*Ryczów190th M · 82nd M23Time26:58:00hPace3.71Cat.M23
- 210*Kraków190th M · 82nd M23Time26:58:00hPace3.71Cat.M23
- 211*Sosnowiec190th M · 82nd M23Time26:58:00hPace3.71Cat.M23
- 212*Myślenice194th M · 11th M50Time27:01:00hPace3.70Cat.M50
- 213Gato Negro195th M · 38th M35Time27:02:00hPace3.70Cat.M35
- 214pancerne wątroby195th M · 21st M40Time27:02:00hPace3.70Cat.M40
- 215Pinky i Mózg197th M · 85th M23Time27:03:00hPace3.70Cat.M23
- 216*Nowy Sącz197th M · 85th M23Time27:03:00hPace3.70Cat.M23
- 217*Stara Wieś197th M · 85th M23Time27:03:00hPace3.70Cat.M23
- 218Pinky i Mózg197th M · 23rd MU23Time27:03:00hPace3.70Cat.MU23
- 219*Nowy Sącz197th M · 85th M23Time27:03:00hPace3.70Cat.M23
- 220*Rybnik202nd M · 89th M23Time27:06:00hPace3.69Cat.M23
- 221Babilon203rd M · 39th M35Time27:09:00hPace3.68Cat.M35
- 222*Radomsko204th M · 40th M35Time27:14:00hPace3.67Cat.M35
- 223*Radomsko204th M · 40th M35Time27:14:00hPace3.67Cat.M35
- 224*Warszawa206th M · 12th M50Time27:23:00hPace3.65Cat.M50
- 225ICM Adventure19th F · 1st W45Time27:23:00hPace3.65Cat.W45
- 226WK PTTK Husaria Czarne20th F · 1st W50Time27:24:00hPace3.65Cat.W50
- 227*Biłgoraj207th M · 42nd M35Time27:30:00hPace3.64Cat.M35
- 228*Szczytno21st F · 2nd W50Time27:39:00hPace3.62Cat.W50
- 229KB Dreptak Mińsk Mazow...208th M · 18th M45Time27:46:00hPace3.60Cat.M45
- 230bajersport.pl209th M · 90th M23Time27:53:00hPace3.59Cat.M23
- 231PJKM209th M · 43rd M35Time27:53:00hPace3.59Cat.M35
- 232JC Team209th M · 90th M23Time27:53:00hPace3.59Cat.M23
- 233KUMPLE212th M · 92nd M23Time27:54:00hPace3.58Cat.M23
- 234KUMPLE212th M · 92nd M23Time27:54:00hPace3.58Cat.M23
- 235*Warszawa22nd F · 15th W23Time27:58:00hPace3.58Cat.W23
- 236*Kraków23rd F · 16th W23Time28:09:00hPace3.55Cat.W23
- 237Gorilla sucks214th M · 24th MU23Time28:09:00hPace3.55Cat.MU23
- 238Borek - Chełm215th M · 19th M45Time28:12:00hPace3.55Cat.M45
- 239*Kraków216th M · 25th MU23Time28:20:00hPace3.53Cat.MU23
- 240Jachty Saturn Team217th M · 94th M23Time28:24:00hPace3.52Cat.M23
- 241Planeta Gór218th M · 95th M23Time28:30:00hPace3.51Cat.M23
- 242*Dobra219th M · 96th M23Time28:36:00hPace3.50Cat.M23
- 243*Warszawa220th M · 3rd M55Time28:39:00hPace3.49Cat.M55
- 244Azymut.pl220th M · 22nd M40Time28:39:00hPace3.49Cat.M40
- 245Kongo Power222nd M · 97th M23Time28:45:00hPace3.48Cat.M23
- 246okolicekrakowa.republi...222nd M · 97th M23Time28:45:00hPace3.48Cat.M23
- 247Kongo Power222nd M · 97th M23Time28:45:00hPace3.48Cat.M23
- 248Kongo Power222nd M · 26th MU23Time28:45:00hPace3.48Cat.MU23
- 249Kongo Power222nd M · 97th M23Time28:45:00hPace3.48Cat.M23
- 250Maraton Leszno227th M · 44th M35Time28:49:00hPace3.47Cat.M35
Showing ranks 201–250 of 311